Aérodrome :
LOGIN :

S'inscrire | Disclaimer

   EN    FR    IT 

 










Légende :    VFR   VFR Marginal   IFR   IFR Intensif   IFR Très Intensif
Visi : 
Plafond : 
>= 8 km
>= 3000ft
5 à 8 km
1000 à 3000 ft
1500m à 5 km
500 à 1000 ft
800 à 1500m
200 à 500 ft
< 800m
< 200 ft
Symboles :   Orages  Brouillard  Fortes neiges  Fortes précipitations  Vent > 20 kt
SIGMETs :   Divers  Orages  Givrage  Turbulence  Onde Orograph.  Cendres Volcan.







- Altitude de l'aérodrome : 39 ft
- Code IATA : ANR


EBAW - Anvers / Antwerpen Deurne

DERNIER METAR :
  • 220820Z 06009KT CAVOK M01/M05 Q1024 NOSIG

METARs EXPIRÉS :
  • 220750Z 05008KT CAVOK M01/M05 Q1024 NOSIG
  • 220720Z 06006KT CAVOK M02/M05 Q1024 NOSIG
  • 220650Z 06007KT CAVOK M02/M05 Q1024 NOSIG
  • 220620Z 06007KT 8000 NSC M02/M05 Q1024 NOSIG
  • 220550Z 05007KT 9000 NSC M02/M05 Q1023 NOSIG

TAF TAF EBAW
Valide du 22 à 09h jusqu'au 22 à 18h UTC


220815Z 2209/2218 05009KT CAVOK
PROB30
TEMPO 2212/2215 05015G25KT
Pas de NOTAMs connus pour ce terrain.
1 SIGMET publié pour la FIR Brussels (EBBU) :
 
Turbulence forte
EBBU SIGMET 03 VALID 220800/221200 EBBR
EBBU BRUSSELS FIR SEV TURB FCST E OF E00315 FL170/250 MOV W 20KT WKN=



MET'MAP, la Météo Aéronautique d'un coup d'oeil ! - Copyright ORBIFLY Décembre 2007 - Disclaimer

ORBIFLY MET'MAP TEAM :

Programmation & Développement : Alexandra Zaïnal
Conception & Développement : Baudouin d'Aumeries
Co-Programmation & Développement : Marc-Olivier Méhu
Soutien technique & logistique : Manuel Goepfert

Contact : metmap@orbifly.com




SOURCES & CREDITS :

   NOAA